sensor_id;sensor_type;location;lat;lon;timestamp;temperature;humidity
58409;DHT22;44202;52.730;6.470;2022-08-05T00:01:19;18.90;99.90
58409;DHT22;44202;52.730;6.470;2022-08-05T00:03:49;18.90;99.90
58409;DHT22;44202;52.730;6.470;2022-08-05T00:06:16;18.80;99.90
58409;DHT22;44202;52.730;6.470;2022-08-05T00:08:42;18.80;99.90
58409;DHT22;44202;52.730;6.470;2022-08-05T00:11:10;18.90;99.90
58409;DHT22;44202;52.730;6.470;2022-08-05T00:13:38;18.90;99.90
58409;DHT22;44202;52.730;6.470;2022-08-05T00:16:05;18.90;99.90
58409;DHT22;44202;52.730;6.470;2022-08-05T00:18:31;18.90;99.90
58409;DHT22;44202;52.730;6.470;2022-08-05T00:20:57;18.90;99.90
58409;DHT22;44202;52.730;6.470;2022-08-05T00:23:23;18.80;99.90
58409;DHT22;44202;52.730;6.470;2022-08-05T00:25:49;18.70;99.90
58409;DHT22;44202;52.730;6.470;2022-08-05T00:28:15;18.70;99.90
58409;DHT22;44202;52.730;6.470;2022-08-05T00:30:41;18.70;99.90
58409;DHT22;44202;52.730;6.470;2022-08-05T00:33:07;18.70;99.90
58409;DHT22;44202;52.730;6.470;2022-08-05T00:35:34;18.70;99.90
58409;DHT22;44202;52.730;6.470;2022-08-05T00:38:00;18.70;99.90
58409;DHT22;44202;52.730;6.470;2022-08-05T00:40:26;18.60;99.90
58409;DHT22;44202;52.730;6.470;2022-08-05T00:42:53;18.60;99.90
58409;DHT22;44202;52.730;6.470;2022-08-05T00:45:18;18.60;99.90
58409;DHT22;44202;52.730;6.470;2022-08-05T00:47:44;18.70;99.90
58409;DHT22;44202;52.730;6.470;2022-08-05T00:50:10;18.60;99.90
58409;DHT22;44202;52.730;6.470;2022-08-05T00:52:36;18.60;99.90
58409;DHT22;44202;52.730;6.470;2022-08-05T00:55:03;18.60;99.90
58409;DHT22;44202;52.730;6.470;2022-08-05T00:57:29;18.60;99.90
58409;DHT22;44202;52.730;6.470;2022-08-05T00:59:54;18.60;99.90
58409;DHT22;44202;52.730;6.470;2022-08-05T01:02:20;18.60;99.90
58409;DHT22;44202;52.730;6.470;2022-08-05T01:04:46;18.60;99.90
58409;DHT22;44202;52.730;6.470;2022-08-05T01:07:11;18.60;99.90
58409;DHT22;44202;52.730;6.470;2022-08-05T01:09:37;18.60;99.90
58409;DHT22;44202;52.730;6.470;2022-08-05T01:12:06;18.50;99.90
58409;DHT22;44202;52.730;6.470;2022-08-05T01:14:37;18.60;99.90
58409;DHT22;44202;52.730;6.470;2022-08-05T01:17:05;18.60;99.90
58409;DHT22;44202;52.730;6.470;2022-08-05T01:22:24;18.60;99.90
58409;DHT22;44202;52.730;6.470;2022-08-05T01:25:23;18.50;99.90
58409;DHT22;44202;52.730;6.470;2022-08-05T01:30:19;18.40;99.90
58409;DHT22;44202;52.730;6.470;2022-08-05T01:32:46;18.40;99.90
58409;DHT22;44202;52.730;6.470;2022-08-05T01:35:16;18.40;99.90
58409;DHT22;44202;52.730;6.470;2022-08-05T01:37:46;18.40;99.90
58409;DHT22;44202;52.730;6.470;2022-08-05T01:40:14;18.40;99.90
58409;DHT22;44202;52.730;6.470;2022-08-05T01:42:43;18.30;99.90
58409;DHT22;44202;52.730;6.470;2022-08-05T01:45:10;18.40;99.90
58409;DHT22;44202;52.730;6.470;2022-08-05T01:47:37;18.40;99.90
58409;DHT22;44202;52.730;6.470;2022-08-05T01:50:07;18.40;99.90
58409;DHT22;44202;52.730;6.470;2022-08-05T01:52:36;18.40;99.90
58409;DHT22;44202;52.730;6.470;2022-08-05T01:55:06;18.40;99.90
58409;DHT22;44202;52.730;6.470;2022-08-05T01:57:38;18.30;99.90
58409;DHT22;44202;52.730;6.470;2022-08-05T02:00:06;18.30;99.90
58409;DHT22;44202;52.730;6.470;2022-08-05T02:02:37;18.30;99.90
58409;DHT22;44202;52.730;6.470;2022-08-05T02:05:06;18.30;99.90
58409;DHT22;44202;52.730;6.470;2022-08-05T02:07:33;18.20;99.90
58409;DHT22;44202;52.730;6.470;2022-08-05T02:09:59;18.30;99.90
58409;DHT22;44202;52.730;6.470;2022-08-05T02:12:43;18.20;99.90
58409;DHT22;44202;52.730;6.470;2022-08-05T02:15:32;18.20;99.90
58409;DHT22;44202;52.730;6.470;2022-08-05T02:18:19;18.10;99.90
58409;DHT22;44202;52.730;6.470;2022-08-05T02:20:52;18.10;99.90
58409;DHT22;44202;52.730;6.470;2022-08-05T02:23:19;18.10;99.90
58409;DHT22;44202;52.730;6.470;2022-08-05T02:25:48;18.10;99.90
58409;DHT22;44202;52.730;6.470;2022-08-05T02:28:24;18.10;99.90
58409;DHT22;44202;52.730;6.470;2022-08-05T02:31:04;18.10;99.90
58409;DHT22;44202;52.730;6.470;2022-08-05T02:33:37;18.10;99.90
58409;DHT22;44202;52.730;6.470;2022-08-05T02:36:07;18.00;99.90
58409;DHT22;44202;52.730;6.470;2022-08-05T02:38:33;18.10;99.90
58409;DHT22;44202;52.730;6.470;2022-08-05T02:41:00;18.10;99.90
58409;DHT22;44202;52.730;6.470;2022-08-05T02:43:28;18.10;99.90
58409;DHT22;44202;52.730;6.470;2022-08-05T02:45:55;18.10;99.90
58409;DHT22;44202;52.730;6.470;2022-08-05T02:48:23;18.10;99.90
58409;DHT22;44202;52.730;6.470;2022-08-05T02:50:50;18.00;99.90
58409;DHT22;44202;52.730;6.470;2022-08-05T02:53:16;18.00;99.90
58409;DHT22;44202;52.730;6.470;2022-08-05T02:55:49;18.00;99.90
58409;DHT22;44202;52.730;6.470;2022-08-05T02:58:15;18.00;99.90
58409;DHT22;44202;52.730;6.470;2022-08-05T03:00:43;17.90;99.90
58409;DHT22;44202;52.730;6.470;2022-08-05T03:03:13;18.00;99.90
58409;DHT22;44202;52.730;6.470;2022-08-05T03:05:39;17.90;99.90
58409;DHT22;44202;52.730;6.470;2022-08-05T03:08:06;18.00;99.90
58409;DHT22;44202;52.730;6.470;2022-08-05T03:10:31;18.00;99.90
58409;DHT22;44202;52.730;6.470;2022-08-05T03:12:57;17.90;99.90
58409;DHT22;44202;52.730;6.470;2022-08-05T03:15:23;17.90;99.90
58409;DHT22;44202;52.730;6.470;2022-08-05T03:17:48;17.90;99.90
58409;DHT22;44202;52.730;6.470;2022-08-05T03:20:14;17.90;99.90
58409;DHT22;44202;52.730;6.470;2022-08-05T03:22:39;17.90;99.90
58409;DHT22;44202;52.730;6.470;2022-08-05T03:25:06;17.80;99.90
58409;DHT22;44202;52.730;6.470;2022-08-05T03:27:32;17.90;99.90
58409;DHT22;44202;52.730;6.470;2022-08-05T03:29:58;17.80;99.90
58409;DHT22;44202;52.730;6.470;2022-08-05T03:32:24;17.80;99.90
58409;DHT22;44202;52.730;6.470;2022-08-05T03:34:51;17.80;99.90
58409;DHT22;44202;52.730;6.470;2022-08-05T03:37:18;17.80;99.90
58409;DHT22;44202;52.730;6.470;2022-08-05T03:39:53;17.80;99.90
58409;DHT22;44202;52.730;6.470;2022-08-05T03:42:19;17.70;99.90
58409;DHT22;44202;52.730;6.470;2022-08-05T03:44:44;17.70;99.90
58409;DHT22;44202;52.730;6.470;2022-08-05T03:47:10;17.70;99.90
58409;DHT22;44202;52.730;6.470;2022-08-05T03:49:35;17.60;99.90
58409;DHT22;44202;52.730;6.470;2022-08-05T03:52:03;17.50;99.90
58409;DHT22;44202;52.730;6.470;2022-08-05T03:54:49;17.60;99.90
58409;DHT22;44202;52.730;6.470;2022-08-05T03:57:19;17.60;99.90
58409;DHT22;44202;52.730;6.470;2022-08-05T03:59:54;17.50;99.90
58409;DHT22;44202;52.730;6.470;2022-08-05T04:02:22;17.50;99.90
58409;DHT22;44202;52.730;6.470;2022-08-05T04:04:50;17.50;99.90
58409;DHT22;44202;52.730;6.470;2022-08-05T04:07:16;17.50;99.90
58409;DHT22;44202;52.730;6.470;2022-08-05T04:09:42;17.50;99.90
58409;DHT22;44202;52.730;6.470;2022-08-05T04:12:08;17.50;99.90
58409;DHT22;44202;52.730;6.470;2022-08-05T04:14:35;17.50;99.90
58409;DHT22;44202;52.730;6.470;2022-08-05T04:17:01;17.50;99.90
58409;DHT22;44202;52.730;6.470;2022-08-05T04:19:28;17.50;99.90
58409;DHT22;44202;52.730;6.470;2022-08-05T04:21:53;17.50;99.90
58409;DHT22;44202;52.730;6.470;2022-08-05T04:24:19;17.40;99.90
58409;DHT22;44202;52.730;6.470;2022-08-05T04:26:44;17.40;99.90
58409;DHT22;44202;52.730;6.470;2022-08-05T04:29:10;17.50;99.90
58409;DHT22;44202;52.730;6.470;2022-08-05T04:31:37;17.40;99.90
58409;DHT22;44202;52.730;6.470;2022-08-05T04:34:03;17.40;99.90
58409;DHT22;44202;52.730;6.470;2022-08-05T04:36:28;17.40;99.90
58409;DHT22;44202;52.730;6.470;2022-08-05T04:38:54;17.40;99.90
58409;DHT22;44202;52.730;6.470;2022-08-05T04:41:20;17.30;99.90
58409;DHT22;44202;52.730;6.470;2022-08-05T04:43:45;17.40;99.90
58409;DHT22;44202;52.730;6.470;2022-08-05T04:46:11;17.40;99.90
58409;DHT22;44202;52.730;6.470;2022-08-05T04:48:37;17.40;99.90
58409;DHT22;44202;52.730;6.470;2022-08-05T04:51:02;17.50;99.90
58409;DHT22;44202;52.730;6.470;2022-08-05T04:53:28;17.40;99.90
58409;DHT22;44202;52.730;6.470;2022-08-05T04:55:54;17.40;99.90
58409;DHT22;44202;52.730;6.470;2022-08-05T04:58:19;17.40;99.90
58409;DHT22;44202;52.730;6.470;2022-08-05T05:00:45;17.40;99.90
58409;DHT22;44202;52.730;6.470;2022-08-05T05:03:11;17.40;99.90
58409;DHT22;44202;52.730;6.470;2022-08-05T05:05:37;17.40;99.90
58409;DHT22;44202;52.730;6.470;2022-08-05T05:08:04;17.50;99.90
58409;DHT22;44202;52.730;6.470;2022-08-05T05:10:31;17.50;99.90
58409;DHT22;44202;52.730;6.470;2022-08-05T05:12:57;17.50;99.90
58409;DHT22;44202;52.730;6.470;2022-08-05T05:15:24;17.50;99.90
58409;DHT22;44202;52.730;6.470;2022-08-05T05:17:50;17.50;99.90
58409;DHT22;44202;52.730;6.470;2022-08-05T05:20:16;17.50;99.90
58409;DHT22;44202;52.730;6.470;2022-08-05T05:22:42;17.50;99.90
58409;DHT22;44202;52.730;6.470;2022-08-05T05:25:08;17.50;99.90
58409;DHT22;44202;52.730;6.470;2022-08-05T05:27:34;17.50;99.90
58409;DHT22;44202;52.730;6.470;2022-08-05T05:30:01;17.30;99.90
58409;DHT22;44202;52.730;6.470;2022-08-05T05:32:26;17.50;99.90
58409;DHT22;44202;52.730;6.470;2022-08-05T05:34:52;17.40;99.90
58409;DHT22;44202;52.730;6.470;2022-08-05T05:37:18;17.50;99.90
58409;DHT22;44202;52.730;6.470;2022-08-05T05:39:43;17.40;99.90
58409;DHT22;44202;52.730;6.470;2022-08-05T05:42:09;17.40;99.90
58409;DHT22;44202;52.730;6.470;2022-08-05T05:44:35;17.40;99.90
58409;DHT22;44202;52.730;6.470;2022-08-05T05:47:01;17.30;99.90
58409;DHT22;44202;52.730;6.470;2022-08-05T05:49:26;17.40;99.90
58409;DHT22;44202;52.730;6.470;2022-08-05T05:51:54;17.30;99.90
58409;DHT22;44202;52.730;6.470;2022-08-05T05:54:19;17.30;99.90
58409;DHT22;44202;52.730;6.470;2022-08-05T05:56:45;17.20;99.90
58409;DHT22;44202;52.730;6.470;2022-08-05T05:59:11;17.20;99.90
58409;DHT22;44202;52.730;6.470;2022-08-05T06:01:39;17.20;99.90
58409;DHT22;44202;52.730;6.470;2022-08-05T06:04:14;17.20;99.90
58409;DHT22;44202;52.730;6.470;2022-08-05T06:06:50;17.30;99.90
58409;DHT22;44202;52.730;6.470;2022-08-05T06:09:16;17.40;99.90
58409;DHT22;44202;52.730;6.470;2022-08-05T06:11:41;17.50;99.90
58409;DHT22;44202;52.730;6.470;2022-08-05T06:14:07;17.50;99.90
58409;DHT22;44202;52.730;6.470;2022-08-05T06:16:32;17.60;99.90
58409;DHT22;44202;52.730;6.470;2022-08-05T06:18:59;17.60;99.90
58409;DHT22;44202;52.730;6.470;2022-08-05T06:21:24;17.70;99.90
58409;DHT22;44202;52.730;6.470;2022-08-05T06:23:50;17.60;99.90
58409;DHT22;44202;52.730;6.470;2022-08-05T06:26:16;17.50;99.90
58409;DHT22;44202;52.730;6.470;2022-08-05T06:28:42;17.60;99.90
58409;DHT22;44202;52.730;6.470;2022-08-05T06:31:08;17.50;99.90
58409;DHT22;44202;52.730;6.470;2022-08-05T06:33:33;17.40;99.90
58409;DHT22;44202;52.730;6.470;2022-08-05T06:35:59;17.40;99.90
58409;DHT22;44202;52.730;6.470;2022-08-05T06:38:25;17.50;99.90
58409;DHT22;44202;52.730;6.470;2022-08-05T06:40:50;17.50;99.90
58409;DHT22;44202;52.730;6.470;2022-08-05T06:43:16;17.50;99.90
58409;DHT22;44202;52.730;6.470;2022-08-05T06:45:41;17.60;99.90
58409;DHT22;44202;52.730;6.470;2022-08-05T06:48:07;17.70;99.90
58409;DHT22;44202;52.730;6.470;2022-08-05T06:50:33;17.70;99.90
58409;DHT22;44202;52.730;6.470;2022-08-05T06:52:59;17.80;99.90
58409;DHT22;44202;52.730;6.470;2022-08-05T06:55:24;17.90;99.90
58409;DHT22;44202;52.730;6.470;2022-08-05T06:57:50;18.00;99.90
58409;DHT22;44202;52.730;6.470;2022-08-05T07:00:16;18.20;99.90
58409;DHT22;44202;52.730;6.470;2022-08-05T07:02:44;18.40;99.90
58409;DHT22;44202;52.730;6.470;2022-08-05T07:05:10;18.60;99.90
58409;DHT22;44202;52.730;6.470;2022-08-05T07:07:37;18.80;99.90
58409;DHT22;44202;52.730;6.470;2022-08-05T07:10:03;19.10;99.90
58409;DHT22;44202;52.730;6.470;2022-08-05T07:12:28;19.20;99.90
58409;DHT22;44202;52.730;6.470;2022-08-05T07:15:13;19.20;99.90
58409;DHT22;44202;52.730;6.470;2022-08-05T07:17:57;19.30;99.90
58409;DHT22;44202;52.730;6.470;2022-08-05T07:20:23;19.40;99.90
58409;DHT22;44202;52.730;6.470;2022-08-05T07:22:48;19.60;99.90
58409;DHT22;44202;52.730;6.470;2022-08-05T07:25:14;19.70;99.90
58409;DHT22;44202;52.730;6.470;2022-08-05T07:27:40;20.00;99.90
58409;DHT22;44202;52.730;6.470;2022-08-05T07:30:06;20.40;99.90
58409;DHT22;44202;52.730;6.470;2022-08-05T07:32:38;20.70;99.90
58409;DHT22;44202;52.730;6.470;2022-08-05T07:35:11;21.10;99.90
58409;DHT22;44202;52.730;6.470;2022-08-05T07:37:37;21.40;99.90
58409;DHT22;44202;52.730;6.470;2022-08-05T07:40:05;21.70;99.90
58409;DHT22;44202;52.730;6.470;2022-08-05T07:42:31;22.00;99.90
58409;DHT22;44202;52.730;6.470;2022-08-05T07:44:57;22.30;99.90
58409;DHT22;44202;52.730;6.470;2022-08-05T07:47:22;22.50;99.90
58409;DHT22;44202;52.730;6.470;2022-08-05T07:49:48;22.70;99.90
58409;DHT22;44202;52.730;6.470;2022-08-05T07:52:17;22.80;99.90
58409;DHT22;44202;52.730;6.470;2022-08-05T07:54:43;22.70;99.90
58409;DHT22;44202;52.730;6.470;2022-08-05T07:57:09;22.70;99.90
58409;DHT22;44202;52.730;6.470;2022-08-05T07:59:35;22.70;99.90
58409;DHT22;44202;52.730;6.470;2022-08-05T08:02:00;22.70;99.90
58409;DHT22;44202;52.730;6.470;2022-08-05T08:04:27;22.70;99.90
58409;DHT22;44202;52.730;6.470;2022-08-05T08:06:53;22.60;99.90
58409;DHT22;44202;52.730;6.470;2022-08-05T08:09:19;22.50;99.90
58409;DHT22;44202;52.730;6.470;2022-08-05T08:11:45;22.50;99.90
58409;DHT22;44202;52.730;6.470;2022-08-05T08:14:11;22.40;99.90
58409;DHT22;44202;52.730;6.470;2022-08-05T08:16:36;22.40;99.90
58409;DHT22;44202;52.730;6.470;2022-08-05T08:19:02;22.30;99.90
58409;DHT22;44202;52.730;6.470;2022-08-05T08:21:28;22.30;99.90
58409;DHT22;44202;52.730;6.470;2022-08-05T08:24:12;22.30;99.90
58409;DHT22;44202;52.730;6.470;2022-08-05T08:26:38;22.40;99.90
58409;DHT22;44202;52.730;6.470;2022-08-05T08:29:04;22.60;99.90
58409;DHT22;44202;52.730;6.470;2022-08-05T08:31:30;22.80;99.90
58409;DHT22;44202;52.730;6.470;2022-08-05T08:33:56;22.80;99.90
58409;DHT22;44202;52.730;6.470;2022-08-05T08:36:24;22.70;99.90
58409;DHT22;44202;52.730;6.470;2022-08-05T08:38:50;22.70;99.90
58409;DHT22;44202;52.730;6.470;2022-08-05T08:41:22;22.80;99.90
58409;DHT22;44202;52.730;6.470;2022-08-05T08:43:49;22.80;99.90
58409;DHT22;44202;52.730;6.470;2022-08-05T08:46:16;22.80;99.90
58409;DHT22;44202;52.730;6.470;2022-08-05T08:48:45;22.80;99.90
58409;DHT22;44202;52.730;6.470;2022-08-05T08:51:13;22.90;99.90
58409;DHT22;44202;52.730;6.470;2022-08-05T08:53:39;22.90;99.90
58409;DHT22;44202;52.730;6.470;2022-08-05T08:56:06;23.20;99.90
58409;DHT22;44202;52.730;6.470;2022-08-05T08:58:31;23.20;99.90
58409;DHT22;44202;52.730;6.470;2022-08-05T09:00:57;23.20;99.90
58409;DHT22;44202;52.730;6.470;2022-08-05T09:03:23;23.90;97.60
58409;DHT22;44202;52.730;6.470;2022-08-05T09:05:49;24.50;90.10
58409;DHT22;44202;52.730;6.470;2022-08-05T09:08:15;24.60;87.30
58409;DHT22;44202;52.730;6.470;2022-08-05T09:10:42;25.40;81.30
58409;DHT22;44202;52.730;6.470;2022-08-05T09:13:12;26.20;74.00
58409;DHT22;44202;52.730;6.470;2022-08-05T09:15:38;26.20;69.70
58409;DHT22;44202;52.730;6.470;2022-08-05T09:18:08;26.10;70.60
58409;DHT22;44202;52.730;6.470;2022-08-05T09:20:35;26.00;69.90
58409;DHT22;44202;52.730;6.470;2022-08-05T09:23:10;26.20;69.10
58409;DHT22;44202;52.730;6.470;2022-08-05T09:25:43;26.50;61.30
58409;DHT22;44202;52.730;6.470;2022-08-05T09:28:17;26.20;59.40
58409;DHT22;44202;52.730;6.470;2022-08-05T09:30:54;25.70;62.60
58409;DHT22;44202;52.730;6.470;2022-08-05T09:33:22;25.10;65.70
58409;DHT22;44202;52.730;6.470;2022-08-05T09:35:58;24.80;70.10
58409;DHT22;44202;52.730;6.470;2022-08-05T09:38:24;25.00;70.80
58409;DHT22;44202;52.730;6.470;2022-08-05T09:40:50;25.60;70.70
58409;DHT22;44202;52.730;6.470;2022-08-05T09:45:55;27.40;58.20
58409;DHT22;44202;52.730;6.470;2022-08-05T09:48:26;28.40;53.90
58409;DHT22;44202;52.730;6.470;2022-08-05T09:51:04;28.50;51.60
58409;DHT22;44202;52.730;6.470;2022-08-05T09:53:49;27.80;53.20
58409;DHT22;44202;52.730;6.470;2022-08-05T09:56:24;27.40;53.30
58409;DHT22;44202;52.730;6.470;2022-08-05T09:59:04;26.50;55.00
58409;DHT22;44202;52.730;6.470;2022-08-05T10:01:31;26.50;54.90
58409;DHT22;44202;52.730;6.470;2022-08-05T10:04:09;27.70;53.50
58409;DHT22;44202;52.730;6.470;2022-08-05T10:06:56;28.90;52.00
58409;DHT22;44202;52.730;6.470;2022-08-05T10:09:22;29.30;52.40
58409;DHT22;44202;52.730;6.470;2022-08-05T10:11:48;29.80;51.40
58409;DHT22;44202;52.730;6.470;2022-08-05T10:14:40;30.60;48.40
58409;DHT22;44202;52.730;6.470;2022-08-05T10:17:13;30.70;47.10
58409;DHT22;44202;52.730;6.470;2022-08-05T10:19:39;30.80;46.50
58409;DHT22;44202;52.730;6.470;2022-08-05T10:22:07;31.00;47.20
58409;DHT22;44202;52.730;6.470;2022-08-05T10:24:33;31.40;46.40
58409;DHT22;44202;52.730;6.470;2022-08-05T10:26:58;31.30;45.60
58409;DHT22;44202;52.730;6.470;2022-08-05T10:29:25;31.00;45.10
58409;DHT22;44202;52.730;6.470;2022-08-05T10:31:53;30.80;44.70
58409;DHT22;44202;52.730;6.470;2022-08-05T10:34:20;30.90;44.00
58409;DHT22;44202;52.730;6.470;2022-08-05T10:36:45;30.90;44.30
58409;DHT22;44202;52.730;6.470;2022-08-05T10:39:22;30.70;44.50
58409;DHT22;44202;52.730;6.470;2022-08-05T10:42:02;31.30;43.30
58409;DHT22;44202;52.730;6.470;2022-08-05T10:44:32;31.60;42.80
58409;DHT22;44202;52.730;6.470;2022-08-05T10:47:09;31.50;43.90
58409;DHT22;44202;52.730;6.470;2022-08-05T10:49:58;31.20;42.40
58409;DHT22;44202;52.730;6.470;2022-08-05T10:52:46;29.80;42.30
58409;DHT22;44202;52.730;6.470;2022-08-05T10:55:17;29.40;43.90
58409;DHT22;44202;52.730;6.470;2022-08-05T10:57:44;30.00;44.10
58409;DHT22;44202;52.730;6.470;2022-08-05T11:05:28;31.20;39.20
58409;DHT22;44202;52.730;6.470;2022-08-05T11:08:00;31.30;39.20
58409;DHT22;44202;52.730;6.470;2022-08-05T11:10:28;31.20;39.10
58409;DHT22;44202;52.730;6.470;2022-08-05T11:12:54;31.50;39.20
58409;DHT22;44202;52.730;6.470;2022-08-05T11:15:23;32.00;38.60
58409;DHT22;44202;52.730;6.470;2022-08-05T11:17:53;32.20;37.90
58409;DHT22;44202;52.730;6.470;2022-08-05T11:20:37;32.10;36.70
58409;DHT22;44202;52.730;6.470;2022-08-05T11:23:33;32.00;36.90
58409;DHT22;44202;52.730;6.470;2022-08-05T11:28:51;32.10;37.20
58409;DHT22;44202;52.730;6.470;2022-08-05T11:31:19;32.00;36.30
58409;DHT22;44202;52.730;6.470;2022-08-05T11:36:12;32.00;37.50
58409;DHT22;44202;52.730;6.470;2022-08-05T11:41:05;30.00;38.70
58409;DHT22;44202;52.730;6.470;2022-08-05T11:43:31;29.10;39.40
58409;DHT22;44202;52.730;6.470;2022-08-05T11:45:58;28.40;39.40
58409;DHT22;44202;52.730;6.470;2022-08-05T11:48:25;27.60;40.60
58409;DHT22;44202;52.730;6.470;2022-08-05T11:50:52;26.80;42.20
58409;DHT22;44202;52.730;6.470;2022-08-05T11:53:18;26.40;41.80
58409;DHT22;44202;52.730;6.470;2022-08-05T11:55:58;25.90;42.20
58409;DHT22;44202;52.730;6.470;2022-08-05T11:58:47;25.60;42.20
58409;DHT22;44202;52.730;6.470;2022-08-05T12:01:18;25.20;43.20
58409;DHT22;44202;52.730;6.470;2022-08-05T12:06:22;25.30;45.40
58409;DHT22;44202;52.730;6.470;2022-08-05T12:08:50;25.20;44.70
58409;DHT22;44202;52.730;6.470;2022-08-05T12:11:21;25.20;45.90
58409;DHT22;44202;52.730;6.470;2022-08-05T12:14:03;25.80;46.10
58409;DHT22;44202;52.730;6.470;2022-08-05T12:16:34;26.30;46.10
58409;DHT22;44202;52.730;6.470;2022-08-05T12:19:00;26.70;45.10
58409;DHT22;44202;52.730;6.470;2022-08-05T12:21:27;26.40;44.70
58409;DHT22;44202;52.730;6.470;2022-08-05T12:24:00;26.00;46.20
58409;DHT22;44202;52.730;6.470;2022-08-05T12:26:38;26.10;46.10
58409;DHT22;44202;52.730;6.470;2022-08-05T12:29:07;25.90;45.80
58409;DHT22;44202;52.730;6.470;2022-08-05T12:31:33;25.60;46.10
58409;DHT22;44202;52.730;6.470;2022-08-05T12:34:05;25.30;46.30
58409;DHT22;44202;52.730;6.470;2022-08-05T12:36:33;25.30;46.90
58409;DHT22;44202;52.730;6.470;2022-08-05T12:38:59;24.90;49.10
58409;DHT22;44202;52.730;6.470;2022-08-05T12:41:33;24.70;49.10
58409;DHT22;44202;52.730;6.470;2022-08-05T12:44:08;24.50;48.20
58409;DHT22;44202;52.730;6.470;2022-08-05T12:46:35;24.20;48.70
58409;DHT22;44202;52.730;6.470;2022-08-05T12:49:06;24.00;50.20
58409;DHT22;44202;52.730;6.470;2022-08-05T12:52:02;24.10;50.60
58409;DHT22;44202;52.730;6.470;2022-08-05T12:54:30;24.00;49.00
58409;DHT22;44202;52.730;6.470;2022-08-05T12:57:01;23.90;50.10
58409;DHT22;44202;52.730;6.470;2022-08-05T13:02:07;24.00;52.00
58409;DHT22;44202;52.730;6.470;2022-08-05T13:04:37;24.30;49.70
58409;DHT22;44202;52.730;6.470;2022-08-05T13:07:09;24.20;49.70
58409;DHT22;44202;52.730;6.470;2022-08-05T13:09:58;23.90;49.70
58409;DHT22;44202;52.730;6.470;2022-08-05T13:12:24;23.80;50.60
58409;DHT22;44202;52.730;6.470;2022-08-05T13:14:57;23.80;51.30
58409;DHT22;44202;52.730;6.470;2022-08-05T13:17:24;24.20;51.50
58409;DHT22;44202;52.730;6.470;2022-08-05T13:20:08;24.40;51.60
58409;DHT22;44202;52.730;6.470;2022-08-05T13:23:00;24.50;51.50
58409;DHT22;44202;52.730;6.470;2022-08-05T13:25:26;24.00;50.70
58409;DHT22;44202;52.730;6.470;2022-08-05T13:27:53;23.70;52.30
58409;DHT22;44202;52.730;6.470;2022-08-05T13:30:21;23.60;52.40
58409;DHT22;44202;52.730;6.470;2022-08-05T13:32:50;23.60;52.30
58409;DHT22;44202;52.730;6.470;2022-08-05T13:35:16;23.70;53.50
58409;DHT22;44202;52.730;6.470;2022-08-05T13:37:43;23.70;53.80
58409;DHT22;44202;52.730;6.470;2022-08-05T13:40:10;23.80;53.90
58409;DHT22;44202;52.730;6.470;2022-08-05T13:42:36;23.90;53.20
58409;DHT22;44202;52.730;6.470;2022-08-05T13:45:02;23.90;53.20
58409;DHT22;44202;52.730;6.470;2022-08-05T13:47:28;23.70;53.70
58409;DHT22;44202;52.730;6.470;2022-08-05T13:49:54;23.60;53.00
58409;DHT22;44202;52.730;6.470;2022-08-05T13:52:24;23.40;53.10
58409;DHT22;44202;52.730;6.470;2022-08-05T13:54:56;23.10;53.70
58409;DHT22;44202;52.730;6.470;2022-08-05T13:57:22;23.00;54.40
58409;DHT22;44202;52.730;6.470;2022-08-05T13:59:47;22.70;55.20
58409;DHT22;44202;52.730;6.470;2022-08-05T14:02:14;22.50;56.10
58409;DHT22;44202;52.730;6.470;2022-08-05T14:04:45;22.40;56.80
58409;DHT22;44202;52.730;6.470;2022-08-05T14:07:35;22.40;57.20
58409;DHT22;44202;52.730;6.470;2022-08-05T14:10:13;22.40;55.90
58409;DHT22;44202;52.730;6.470;2022-08-05T14:12:40;22.30;55.90
58409;DHT22;44202;52.730;6.470;2022-08-05T14:15:06;22.40;55.60
58409;DHT22;44202;52.730;6.470;2022-08-05T14:17:31;22.60;55.50
58409;DHT22;44202;52.730;6.470;2022-08-05T14:19:57;22.70;55.70
58409;DHT22;44202;52.730;6.470;2022-08-05T14:22:23;22.80;56.30
58409;DHT22;44202;52.730;6.470;2022-08-05T14:24:48;22.80;56.00
58409;DHT22;44202;52.730;6.470;2022-08-05T14:27:14;22.70;55.70
58409;DHT22;44202;52.730;6.470;2022-08-05T14:29:40;22.40;56.20
58409;DHT22;44202;52.730;6.470;2022-08-05T14:32:06;22.40;57.50
58409;DHT22;44202;52.730;6.470;2022-08-05T14:34:32;22.30;58.00
58409;DHT22;44202;52.730;6.470;2022-08-05T14:36:57;22.30;58.10
58409;DHT22;44202;52.730;6.470;2022-08-05T14:39:23;22.40;56.20
58409;DHT22;44202;52.730;6.470;2022-08-05T14:41:50;22.40;55.70
58409;DHT22;44202;52.730;6.470;2022-08-05T14:44:15;22.60;55.90
58409;DHT22;44202;52.730;6.470;2022-08-05T14:46:42;22.80;56.40
58409;DHT22;44202;52.730;6.470;2022-08-05T14:49:07;23.10;56.30
58409;DHT22;44202;52.730;6.470;2022-08-05T14:51:36;23.30;56.80
58409;DHT22;44202;52.730;6.470;2022-08-05T14:54:03;23.20;55.50
58409;DHT22;44202;52.730;6.470;2022-08-05T14:56:28;22.80;55.90
58409;DHT22;44202;52.730;6.470;2022-08-05T14:58:54;22.60;57.30
58409;DHT22;44202;52.730;6.470;2022-08-05T15:01:20;22.40;57.90
58409;DHT22;44202;52.730;6.470;2022-08-05T15:03:46;22.40;58.40
58409;DHT22;44202;52.730;6.470;2022-08-05T15:06:12;22.30;57.60
58409;DHT22;44202;52.730;6.470;2022-08-05T15:08:37;22.20;58.10
58409;DHT22;44202;52.730;6.470;2022-08-05T15:11:03;22.10;59.10
58409;DHT22;44202;52.730;6.470;2022-08-05T15:13:30;22.20;59.20
58409;DHT22;44202;52.730;6.470;2022-08-05T15:15:55;22.40;60.00
58409;DHT22;44202;52.730;6.470;2022-08-05T15:18:21;23.00;58.60
58409;DHT22;44202;52.730;6.470;2022-08-05T15:20:46;24.10;56.40
58409;DHT22;44202;52.730;6.470;2022-08-05T15:23:12;25.20;53.90
58409;DHT22;44202;52.730;6.470;2022-08-05T15:25:38;25.90;51.80
58409;DHT22;44202;52.730;6.470;2022-08-05T15:28:07;25.60;51.80
58409;DHT22;44202;52.730;6.470;2022-08-05T15:30:33;24.80;53.70
58409;DHT22;44202;52.730;6.470;2022-08-05T15:33:04;24.10;53.80
58409;DHT22;44202;52.730;6.470;2022-08-05T15:35:31;23.70;55.70
58409;DHT22;44202;52.730;6.470;2022-08-05T15:37:57;23.60;54.30
58409;DHT22;44202;52.730;6.470;2022-08-05T15:40:23;23.40;54.30
58409;DHT22;44202;52.730;6.470;2022-08-05T15:42:49;23.90;55.40
58409;DHT22;44202;52.730;6.470;2022-08-05T15:45:15;24.30;54.60
58409;DHT22;44202;52.730;6.470;2022-08-05T15:47:42;24.90;54.00
58409;DHT22;44202;52.730;6.470;2022-08-05T15:50:10;25.50;51.80
58409;DHT22;44202;52.730;6.470;2022-08-05T15:52:36;26.10;51.20
58409;DHT22;44202;52.730;6.470;2022-08-05T15:55:07;26.20;49.60
58409;DHT22;44202;52.730;6.470;2022-08-05T15:57:33;26.30;47.90
58409;DHT22;44202;52.730;6.470;2022-08-05T15:59:59;25.90;48.80
58409;DHT22;44202;52.730;6.470;2022-08-05T16:02:25;25.50;48.50
58409;DHT22;44202;52.730;6.470;2022-08-05T16:04:51;25.10;49.20